createdAt,value
2022-08-03T00:01:42.908Z,1.40
2022-08-03T00:04:11.407Z,1.40
2022-08-03T00:06:39.552Z,1.52
2022-08-03T00:09:07.608Z,1.60
2022-08-03T00:11:35.784Z,1.52
2022-08-03T00:14:05.367Z,1.50
2022-08-03T00:16:33.459Z,1.50
2022-08-03T00:19:01.602Z,1.55
2022-08-03T00:21:29.704Z,1.50
2022-08-03T00:23:57.852Z,1.80
2022-08-03T00:26:25.941Z,1.50
2022-08-03T00:28:54.004Z,1.52
2022-08-03T00:31:40.072Z,1.75
2022-08-03T00:34:12.499Z,1.50
2022-08-03T00:36:41.037Z,1.55
2022-08-03T00:39:09.421Z,1.80
2022-08-03T00:41:37.581Z,1.60
2022-08-03T00:44:05.917Z,1.85
2022-08-03T00:46:35.384Z,1.55
2022-08-03T00:49:03.476Z,1.40
2022-08-03T00:51:31.587Z,1.63
2022-08-03T00:53:59.637Z,1.63
2022-08-03T00:56:27.704Z,1.58
2022-08-03T00:58:55.739Z,1.52
2022-08-03T01:01:23.845Z,1.63
2022-08-03T01:03:53.316Z,1.60
2022-08-03T01:06:24.433Z,1.92
2022-08-03T01:08:56.051Z,1.58
2022-08-03T01:11:37.043Z,1.52
2022-08-03T01:14:28.152Z,1.60
2022-08-03T01:16:58.375Z,1.50
2022-08-03T01:19:42.878Z,1.60
2022-08-03T01:22:19.213Z,1.42
2022-08-03T01:24:51.887Z,1.50
2022-08-03T01:27:20.726Z,1.33
2022-08-03T01:29:58.272Z,1.50
2022-08-03T01:32:59.232Z,1.50
2022-08-03T01:35:17.795Z,1.70
2022-08-03T01:37:51.321Z,1.63
2022-08-03T01:40:19.554Z,1.70
2022-08-03T01:42:47.615Z,1.60
2022-08-03T01:45:18.057Z,1.63
2022-08-03T01:47:46.533Z,1.77
2022-08-03T01:50:14.744Z,1.77
2022-08-03T01:52:44.818Z,1.80
2022-08-03T01:55:13.460Z,1.55
2022-08-03T01:58:05.215Z,1.92
2022-08-03T02:00:31.679Z,1.55
2022-08-03T02:02:59.721Z,1.70
2022-08-03T02:05:27.920Z,1.80
2022-08-03T02:07:55.982Z,1.80
2022-08-03T02:10:34.508Z,1.90
2022-08-03T02:13:04.281Z,2.10
2022-08-03T02:15:34.089Z,1.83
2022-08-03T02:18:02.150Z,1.85
2022-08-03T02:20:30.286Z,1.92
2022-08-03T02:22:58.327Z,2.00
2022-08-03T02:25:26.533Z,2.03
2022-08-03T02:27:56.874Z,1.90
2022-08-03T02:30:25.376Z,2.20
2022-08-03T02:32:56.787Z,1.95
2022-08-03T02:35:25.790Z,1.80
2022-08-03T02:37:54.480Z,1.98
2022-08-03T02:40:22.550Z,2.00
2022-08-03T02:42:51.199Z,1.70
2022-08-03T02:45:19.260Z,1.70
2022-08-03T02:47:54.329Z,1.70
2022-08-03T02:50:24.504Z,1.90
2022-08-03T02:52:52.988Z,1.80
2022-08-03T02:55:21.681Z,1.70
2022-08-03T02:57:49.747Z,1.75
2022-08-03T03:00:27.110Z,1.85
2022-08-03T03:02:58.260Z,1.70
2022-08-03T03:05:53.626Z,1.73
2022-08-03T03:08:18.075Z,1.67
2022-08-03T03:10:46.940Z,1.83
2022-08-03T03:13:15.580Z,1.70
2022-08-03T03:15:43.694Z,1.70
2022-08-03T03:18:11.982Z,1.48
2022-08-03T03:20:41.990Z,1.60
2022-08-03T03:23:10.077Z,1.75
2022-08-03T03:25:38.143Z,1.80
2022-08-03T03:28:07.183Z,1.60
2022-08-03T03:30:35.280Z,1.65
2022-08-03T03:33:03.853Z,1.80
2022-08-03T03:35:31.972Z,1.58
2022-08-03T03:38:08.456Z,1.95
2022-08-03T03:40:36.673Z,1.77
2022-08-03T03:43:04.753Z,1.77
2022-08-03T03:45:32.894Z,1.85
2022-08-03T03:48:01.389Z,1.65
2022-08-03T03:50:29.488Z,2.05
2022-08-03T03:52:57.714Z,1.88
2022-08-03T03:55:27.157Z,1.90
2022-08-03T03:57:55.516Z,1.73
2022-08-03T04:00:23.626Z,1.52
2022-08-03T04:02:51.703Z,1.90
2022-08-03T04:05:37.078Z,1.77
2022-08-03T04:08:26.681Z,1.80
2022-08-03T04:11:05.262Z,1.85
2022-08-03T04:13:35.688Z,1.70
2022-08-03T04:16:03.925Z,1.60
2022-08-03T04:18:33.811Z,1.63
2022-08-03T04:21:04.615Z,1.90
2022-08-03T04:23:34.886Z,1.77
2022-08-03T04:26:04.472Z,1.70
2022-08-03T04:28:32.622Z,2.13
2022-08-03T04:31:00.938Z,1.77
2022-08-03T04:33:29.377Z,1.90
2022-08-03T04:36:01.514Z,1.77
2022-08-03T04:38:30.862Z,2.00
2022-08-03T04:40:58.950Z,1.90
2022-08-03T04:43:28.347Z,1.90
2022-08-03T04:45:56.450Z,1.73
2022-08-03T04:48:24.617Z,1.65
2022-08-03T04:50:52.708Z,2.00
2022-08-03T04:53:20.757Z,1.95
2022-08-03T04:55:49.807Z,1.80
2022-08-03T04:58:17.912Z,1.73
2022-08-03T05:00:51.139Z,1.67
2022-08-03T05:03:24.321Z,1.98
2022-08-03T05:05:53.320Z,1.90
2022-08-03T05:08:30.313Z,1.83
2022-08-03T05:10:59.803Z,1.90
2022-08-03T05:13:27.846Z,1.92
2022-08-03T05:15:57.309Z,1.80
2022-08-03T05:18:25.378Z,1.83
2022-08-03T05:20:53.520Z,1.85
2022-08-03T05:23:21.599Z,1.90
2022-08-03T05:25:50.292Z,2.03
2022-08-03T05:28:18.411Z,1.90
2022-08-03T05:30:46.478Z,2.10
2022-08-03T05:33:18.681Z,2.08
2022-08-03T05:36:01.222Z,2.00
2022-08-03T05:38:34.217Z,1.70
2022-08-03T05:41:23.627Z,1.95
2022-08-03T05:43:52.894Z,2.10
2022-08-03T05:46:21.507Z,1.80
2022-08-03T05:48:50.978Z,1.77
2022-08-03T05:51:19.077Z,1.60
2022-08-03T05:53:47.225Z,1.75
2022-08-03T05:56:16.536Z,1.90
2022-08-03T05:58:46.112Z,1.90
2022-08-03T06:01:14.375Z,1.90
2022-08-03T06:03:42.598Z,1.70
2022-08-03T06:06:12.222Z,1.80
2022-08-03T06:08:43.280Z,1.75
2022-08-03T06:11:11.478Z,1.55
2022-08-03T06:13:39.733Z,1.80
2022-08-03T06:16:07.844Z,1.98
2022-08-03T06:18:36.064Z,2.05
2022-08-03T06:21:14.032Z,2.03
2022-08-03T06:23:52.830Z,2.00
2022-08-03T06:26:21.851Z,1.80
2022-08-03T06:28:52.504Z,2.10
2022-08-03T06:31:24.150Z,2.03
2022-08-03T06:34:32.155Z,1.80
2022-08-03T06:36:40.886Z,2.05
2022-08-03T06:39:10.396Z,3.03
2022-08-03T06:41:44.749Z,1.90
2022-08-03T06:44:13.448Z,1.90
2022-08-03T06:46:42.388Z,2.10
2022-08-03T06:49:10.540Z,2.08
2022-08-03T06:52:05.404Z,2.05
2022-08-03T06:54:32.578Z,1.98
2022-08-03T06:57:01.170Z,2.20
2022-08-03T07:00:08.178Z,1.92
2022-08-03T07:02:19.308Z,2.13
2022-08-03T07:04:47.728Z,1.88
2022-08-03T07:07:15.836Z,1.75
2022-08-03T07:09:56.780Z,1.80
2022-08-03T07:12:26.925Z,1.73
2022-08-03T07:14:59.768Z,2.00
2022-08-03T07:17:29.433Z,1.85
2022-08-03T07:19:57.998Z,2.10
2022-08-03T07:22:26.144Z,1.88
2022-08-03T07:24:56.569Z,1.80
2022-08-03T07:27:27.212Z,2.00
2022-08-03T07:29:55.570Z,1.90
2022-08-03T07:32:23.684Z,1.80
2022-08-03T07:34:51.793Z,1.67
2022-08-03T07:37:21.302Z,2.00
2022-08-03T07:39:49.387Z,1.70
2022-08-03T07:42:19.137Z,1.88
2022-08-03T07:44:47.386Z,1.70
2022-08-03T07:47:22.698Z,1.88
2022-08-03T07:52:36.803Z,1.77
2022-08-03T07:57:36.155Z,1.83
2022-08-03T08:00:05.159Z,1.85
2022-08-03T08:02:33.286Z,1.75
2022-08-03T08:05:05.519Z,1.65
2022-08-03T08:07:34.136Z,2.40
2022-08-03T08:10:02.193Z,1.80
2022-08-03T08:12:30.303Z,1.65
2022-08-03T08:15:00.919Z,1.85
2022-08-03T08:17:29.159Z,1.67
2022-08-03T08:19:57.812Z,1.60
2022-08-03T08:22:29.909Z,1.60
2022-08-03T08:24:59.114Z,1.73
2022-08-03T08:27:27.392Z,1.60
2022-08-03T08:30:00.586Z,1.60
2022-08-03T08:32:34.318Z,1.88
2022-08-03T08:35:02.427Z,1.60
2022-08-03T08:37:30.641Z,2.95
2022-08-03T08:39:58.697Z,1.80
2022-08-03T08:42:26.835Z,1.58
2022-08-03T08:44:55.129Z,1.58
2022-08-03T08:47:24.301Z,1.70
2022-08-03T08:50:09.301Z,1.55
2022-08-03T08:52:38.561Z,1.60
2022-08-03T08:55:07.913Z,1.60
2022-08-03T08:57:44.696Z,1.50
2022-08-03T09:00:15.100Z,1.70
2022-08-03T09:02:43.596Z,1.48
2022-08-03T09:05:13.777Z,1.70
2022-08-03T09:07:41.954Z,2.45
2022-08-03T09:10:13.311Z,1.70
2022-08-03T09:12:44.015Z,1.40
2022-08-03T09:15:22.903Z,1.45
2022-08-03T09:17:51.565Z,1.30
2022-08-03T09:20:21.372Z,1.35
2022-08-03T09:22:59.384Z,1.40
2022-08-03T09:25:34.329Z,1.30
2022-08-03T09:28:10.601Z,1.60
2022-08-03T09:30:39.092Z,1.42
2022-08-03T09:33:08.732Z,1.60
2022-08-03T09:35:59.033Z,1.20
2022-08-03T09:38:27.625Z,1.17
2022-08-03T09:40:59.587Z,1.40
2022-08-03T09:43:28.667Z,1.10
2022-08-03T09:46:03.861Z,1.33
2022-08-03T09:51:14.227Z,1.48
2022-08-03T09:53:57.271Z,1.42
2022-08-03T09:56:40.531Z,1.30
2022-08-03T09:59:08.910Z,1.30
2022-08-03T10:01:37.452Z,1.35
2022-08-03T10:04:05.812Z,1.30
2022-08-03T10:06:35.264Z,1.60
2022-08-03T10:09:07.737Z,1.45
2022-08-03T10:11:40.738Z,1.25
2022-08-03T10:14:11.058Z,1.40
2022-08-03T10:16:40.178Z,1.27
2022-08-03T10:19:09.815Z,1.20
2022-08-03T10:21:40.471Z,1.40
2022-08-03T10:24:10.775Z,1.25
2022-08-03T10:26:49.935Z,1.23
2022-08-03T10:29:22.490Z,1.35
2022-08-03T10:31:57.405Z,1.25
2022-08-03T10:34:27.989Z,1.25
2022-08-03T10:37:00.914Z,1.55
2022-08-03T10:39:30.105Z,1.40
2022-08-03T10:41:59.925Z,1.17
2022-08-03T10:44:33.896Z,1.30
2022-08-03T10:47:02.034Z,1.30
2022-08-03T10:49:33.736Z,1.30
2022-08-03T10:52:11.383Z,1.58
2022-08-03T10:55:11.049Z,1.10
2022-08-03T10:57:48.821Z,1.27
2022-08-03T11:00:19.957Z,1.38
2022-08-03T11:03:08.724Z,1.27
2022-08-03T11:05:38.947Z,1.20
2022-08-03T11:08:28.039Z,1.30
2022-08-03T11:10:57.256Z,1.20
2022-08-03T11:13:26.183Z,1.40
2022-08-03T11:16:00.063Z,1.25
2022-08-03T11:18:31.646Z,1.30
2022-08-03T11:21:00.547Z,1.27
2022-08-03T11:24:02.717Z,1.20
2022-08-03T11:26:34.501Z,1.45
2022-08-03T11:29:27.839Z,1.38
2022-08-03T11:31:56.061Z,1.30
2022-08-03T11:34:24.770Z,1.20
2022-08-03T11:37:29.998Z,1.30
2022-08-03T11:40:02.790Z,1.35
2022-08-03T11:42:48.158Z,1.25
2022-08-03T11:45:16.318Z,1.30
2022-08-03T11:47:51.106Z,1.20
2022-08-03T11:50:21.444Z,1.40
2022-08-03T11:52:50.064Z,1.20
2022-08-03T11:55:22.073Z,1.40
2022-08-03T11:59:00.956Z,1.30
2022-08-03T12:00:38.855Z,1.45
2022-08-03T12:03:08.180Z,1.20
2022-08-03T12:05:41.467Z,1.23
2022-08-03T12:08:09.708Z,1.10
2022-08-03T12:10:39.715Z,1.30
2022-08-03T12:13:56.699Z,1.20
2022-08-03T12:15:59.293Z,1.35
2022-08-03T12:18:27.496Z,1.30
2022-08-03T12:21:05.487Z,1.20
2022-08-03T12:23:37.576Z,1.10
2022-08-03T12:26:08.189Z,1.30
2022-08-03T12:28:38.440Z,1.10
2022-08-03T12:31:07.755Z,0.90
2022-08-03T12:33:58.969Z,1.10
2022-08-03T12:36:27.719Z,1.20
2022-08-03T12:38:56.715Z,1.10
2022-08-03T12:41:30.955Z,1.25
2022-08-03T12:43:59.062Z,1.10
2022-08-03T12:46:31.697Z,1.20
2022-08-03T12:49:01.126Z,1.15
2022-08-03T12:51:29.480Z,1.70
2022-08-03T12:53:58.106Z,1.05
2022-08-03T12:56:26.281Z,1.10
2022-08-03T12:58:55.741Z,1.10
2022-08-03T13:01:24.531Z,1.10
2022-08-03T13:03:54.654Z,1.20
2022-08-03T13:06:24.031Z,1.20
2022-08-03T13:09:02.386Z,1.30
2022-08-03T13:11:57.242Z,1.40
2022-08-03T13:14:20.571Z,1.42
2022-08-03T13:16:49.456Z,1.10
2022-08-03T13:19:17.680Z,1.00
2022-08-03T13:21:53.833Z,1.20
2022-08-03T13:24:32.919Z,1.20
2022-08-03T13:27:22.012Z,1.05
2022-08-03T13:29:50.580Z,0.93
2022-08-03T13:32:18.771Z,1.10
2022-08-03T13:34:52.037Z,1.10
2022-08-03T13:37:20.299Z,1.10
2022-08-03T13:39:59.923Z,1.10
2022-08-03T13:42:30.999Z,1.10
2022-08-03T13:45:00.493Z,1.45
2022-08-03T13:47:28.623Z,1.30
2022-08-03T13:50:01.133Z,1.30
2022-08-03T13:52:34.199Z,1.00
2022-08-03T13:55:02.398Z,1.10
2022-08-03T13:58:02.349Z,1.10
2022-08-03T14:00:27.093Z,1.25
2022-08-03T14:03:02.824Z,1.10
2022-08-03T14:05:32.769Z,1.05
2022-08-03T14:08:04.609Z,1.00
2022-08-03T14:10:33.795Z,1.00
2022-08-03T14:13:01.950Z,1.20
2022-08-03T14:15:31.459Z,1.40
2022-08-03T14:17:59.553Z,1.00
2022-08-03T14:20:38.926Z,0.90
2022-08-03T14:23:15.889Z,1.00
2022-08-03T14:25:51.583Z,1.00
2022-08-03T14:28:22.493Z,1.10
2022-08-03T14:30:52.455Z,1.10
2022-08-03T14:33:20.615Z,1.17
2022-08-03T14:35:48.737Z,1.10
2022-08-03T14:38:16.818Z,1.00
2022-08-03T14:40:44.996Z,1.10
2022-08-03T14:43:13.116Z,1.00
2022-08-03T14:45:41.389Z,1.08
2022-08-03T14:50:28.892Z,1.13
2022-08-03T14:51:00.569Z,1.20
2022-08-03T14:53:29.573Z,1.10
2022-08-03T14:55:57.700Z,1.10
2022-08-03T14:58:26.811Z,1.17
2022-08-03T15:00:55.707Z,1.08
2022-08-03T15:03:25.478Z,1.20
2022-08-03T15:05:53.903Z,1.00
2022-08-03T15:08:21.984Z,0.98
2022-08-03T15:10:50.666Z,1.00
2022-08-03T15:13:19.537Z,1.10
2022-08-03T15:15:48.166Z,1.02
2022-08-03T15:18:20.280Z,1.10
2022-08-03T15:20:50.918Z,1.02
2022-08-03T15:23:19.275Z,1.10
2022-08-03T15:26:32.397Z,1.10
2022-08-03T15:28:37.257Z,1.30
2022-08-03T15:31:05.699Z,1.05
2022-08-03T15:33:33.773Z,1.02
2022-08-03T15:36:05.235Z,1.10
2022-08-03T15:38:33.356Z,1.00
2022-08-03T15:41:01.476Z,0.98
2022-08-03T15:43:29.611Z,1.00
2022-08-03T15:46:26.927Z,1.20
2022-08-03T15:48:46.912Z,1.10
2022-08-03T15:51:16.415Z,1.30
2022-08-03T15:53:44.544Z,1.10
2022-08-03T15:56:16.834Z,1.17
2022-08-03T15:59:10.003Z,1.10
2022-08-03T16:01:34.938Z,1.30
2022-08-03T16:04:03.040Z,0.90
2022-08-03T16:06:35.761Z,1.00
2022-08-03T16:09:05.879Z,1.02
2022-08-03T16:11:52.572Z,1.10
2022-08-03T16:14:34.407Z,1.00
2022-08-03T16:19:34.019Z,1.05
2022-08-03T16:22:05.168Z,1.00
2022-08-03T16:24:34.380Z,1.00
2022-08-03T16:27:06.022Z,1.05
2022-08-03T16:29:45.671Z,1.00
2022-08-03T16:32:13.745Z,1.15
2022-08-03T16:34:41.795Z,1.40
2022-08-03T16:37:37.101Z,1.05
2022-08-03T16:39:59.833Z,1.10
2022-08-03T16:42:27.954Z,1.10
2022-08-03T16:44:56.141Z,0.93
2022-08-03T16:47:24.377Z,1.10
2022-08-03T16:49:56.020Z,1.02
2022-08-03T16:52:25.873Z,1.15
2022-08-03T16:54:55.551Z,1.23
2022-08-03T16:57:56.560Z,1.10
2022-08-03T17:00:33.034Z,1.15
2022-08-03T17:03:04.662Z,1.00
2022-08-03T17:05:47.974Z,1.10
2022-08-03T17:08:26.729Z,1.00
2022-08-03T17:10:56.030Z,0.98
2022-08-03T17:13:27.819Z,1.00
2022-08-03T17:16:09.528Z,1.02
2022-08-03T17:18:42.238Z,1.10
2022-08-03T17:21:15.596Z,1.20
2022-08-03T17:23:47.925Z,0.98
2022-08-03T17:26:21.648Z,1.30
2022-08-03T17:28:56.431Z,1.20
2022-08-03T17:31:31.391Z,1.10
2022-08-03T17:34:01.088Z,1.10
2022-08-03T17:37:01.714Z,1.00
2022-08-03T17:39:30.956Z,1.20
2022-08-03T17:42:29.506Z,1.05
2022-08-03T17:44:57.246Z,1.20
2022-08-03T17:47:40.952Z,1.02
2022-08-03T17:50:25.231Z,1.20
2022-08-03T17:52:57.963Z,1.10
2022-08-03T17:55:56.496Z,1.40
2022-08-03T17:58:19.033Z,1.00
2022-08-03T18:01:59.163Z,0.90
2022-08-03T18:03:58.419Z,1.25
2022-08-03T18:06:28.895Z,1.10
2022-08-03T18:08:57.484Z,1.02
2022-08-03T18:11:37.052Z,1.20
2022-08-03T18:14:15.977Z,1.08
2022-08-03T18:16:45.990Z,1.10
2022-08-03T18:19:14.395Z,1.10
2022-08-03T18:22:02.545Z,1.10
2022-08-03T18:24:31.933Z,1.10
2022-08-03T18:27:03.230Z,1.20
2022-08-03T18:29:31.984Z,1.60
2022-08-03T18:32:03.039Z,1.00
2022-08-03T18:34:34.507Z,1.00
2022-08-03T18:37:07.336Z,1.10
2022-08-03T18:39:49.260Z,1.20
2022-08-03T18:42:25.873Z,2.60
2022-08-03T18:44:56.553Z,3.65
2022-08-03T18:47:50.702Z,4.13
2022-08-03T18:50:24.558Z,4.13
2022-08-03T18:52:55.779Z,3.78
2022-08-03T18:55:33.791Z,4.50
2022-08-03T18:58:15.954Z,3.80
2022-08-03T19:00:55.110Z,2.80
2022-08-03T19:03:43.035Z,2.03
2022-08-03T19:06:14.592Z,1.40
2022-08-03T19:08:48.122Z,1.35
2022-08-03T19:11:18.977Z,1.17
2022-08-03T19:13:50.755Z,1.40
2022-08-03T19:16:22.613Z,2.00
2022-08-03T19:18:53.537Z,2.08
2022-08-03T19:21:22.452Z,1.90
2022-08-03T19:23:50.545Z,1.67
2022-08-03T19:26:30.809Z,1.30
2022-08-03T19:29:00.854Z,1.60
2022-08-03T19:31:31.112Z,1.42
2022-08-03T19:34:03.021Z,1.70
2022-08-03T19:36:32.774Z,1.60
2022-08-03T19:39:00.886Z,1.65
2022-08-03T19:41:41.964Z,2.03
2022-08-03T19:44:12.889Z,2.00
2022-08-03T19:46:53.540Z,1.90
2022-08-03T19:49:26.110Z,1.92
2022-08-03T19:52:14.344Z,2.03
2022-08-03T19:54:53.596Z,2.15
2022-08-03T19:57:24.375Z,1.90
2022-08-03T19:59:53.990Z,2.40
2022-08-03T20:02:27.195Z,2.35
2022-08-03T20:04:56.037Z,1.90
2022-08-03T20:07:24.170Z,1.42
2022-08-03T20:12:40.823Z,1.90
2022-08-03T20:15:10.901Z,1.30
2022-08-03T20:17:56.220Z,1.45
2022-08-03T20:20:27.553Z,1.23
2022-08-03T20:22:57.589Z,1.30
2022-08-03T20:25:38.366Z,1.20
2022-08-03T20:28:14.512Z,1.30
2022-08-03T20:30:47.132Z,1.50
2022-08-03T20:33:18.545Z,1.20
2022-08-03T20:35:48.896Z,1.60
2022-08-03T20:38:17.856Z,1.63
2022-08-03T20:40:46.957Z,1.35
2022-08-03T20:43:15.064Z,1.52
2022-08-03T20:45:59.159Z,1.30
2022-08-03T20:48:32.955Z,1.63
2022-08-03T20:51:01.060Z,1.40
2022-08-03T20:53:57.411Z,1.40
2022-08-03T20:56:17.394Z,1.38
2022-08-03T20:58:50.749Z,1.38
2022-08-03T21:01:27.722Z,1.38
2022-08-03T21:04:04.682Z,1.38
2022-08-03T21:06:37.646Z,1.20
2022-08-03T21:09:06.932Z,1.27
2022-08-03T21:11:41.949Z,1.30
2022-08-03T21:13:10.337Z,1.67
2022-08-03T21:14:12.876Z,1.40
2022-08-03T21:16:43.172Z,1.50
2022-08-03T21:19:11.297Z,1.50
2022-08-03T21:21:40.222Z,1.40
2022-08-03T21:24:09.248Z,1.35
2022-08-03T21:26:37.878Z,1.23
2022-08-03T21:29:06.084Z,1.10
2022-08-03T21:31:34.219Z,1.40
2022-08-03T21:34:05.020Z,1.60
2022-08-03T21:36:34.058Z,1.30
2022-08-03T21:39:02.407Z,1.50
2022-08-03T21:41:32.181Z,1.33
2022-08-03T21:44:00.558Z,1.35
2022-08-03T21:46:30.345Z,1.70
2022-08-03T21:50:05.504Z,1.50
2022-08-03T21:51:51.551Z,1.67
2022-08-03T21:54:20.100Z,1.40
2022-08-03T21:56:49.007Z,1.35
2022-08-03T21:59:18.220Z,1.20
2022-08-03T22:01:49.164Z,1.30
2022-08-03T22:04:50.445Z,1.20
2022-08-03T22:07:09.697Z,1.40
2022-08-03T22:09:37.815Z,1.40
2022-08-03T22:12:07.100Z,1.27
2022-08-03T22:14:35.245Z,1.50
2022-08-03T22:17:06.370Z,1.30
2022-08-03T22:19:35.404Z,1.40
2022-08-03T22:22:04.650Z,1.40
2022-08-03T22:24:34.061Z,1.45
2022-08-03T22:27:20.414Z,1.60
2022-08-03T22:29:48.749Z,1.40
2022-08-03T22:32:16.840Z,1.38
2022-08-03T22:34:44.928Z,1.50
2022-08-03T22:37:13.061Z,1.25
2022-08-03T22:39:42.609Z,1.40
2022-08-03T22:42:10.831Z,1.30
2022-08-03T22:44:38.925Z,1.30
2022-08-03T22:47:07.310Z,1.30
2022-08-03T22:49:35.414Z,1.30
2022-08-03T22:52:03.508Z,1.45
2022-08-03T22:54:32.799Z,1.30
2022-08-03T22:57:02.225Z,1.73
2022-08-03T22:59:40.031Z,1.30
2022-08-03T23:02:19.948Z,1.52
2022-08-03T23:04:51.372Z,1.60
2022-08-03T23:07:22.355Z,1.27
2022-08-03T23:09:50.669Z,1.27
2022-08-03T23:12:21.043Z,1.30
2022-08-03T23:14:53.174Z,1.40
2022-08-03T23:17:21.750Z,1.40
2022-08-03T23:19:51.246Z,1.20
2022-08-03T23:22:30.662Z,1.40
2022-08-03T23:24:59.546Z,1.50
2022-08-03T23:27:29.567Z,1.45
2022-08-03T23:29:57.627Z,1.30
2022-08-03T23:32:26.598Z,1.35
2022-08-03T23:35:12.585Z,1.30
2022-08-03T23:38:04.435Z,1.30
2022-08-03T23:40:31.208Z,1.35
2022-08-03T23:43:00.643Z,1.38
2022-08-03T23:45:28.828Z,1.30
2022-08-03T23:47:56.875Z,1.30
2022-08-03T23:50:25.098Z,1.30
2022-08-03T23:52:57.340Z,1.48
2022-08-03T23:55:33.942Z,1.50
2022-08-03T23:58:10.959Z,1.30
